Архив погоды в Агзу

Метеограмма Агзу
Вторник, 17 Июля
Время местн. Темп Ветер Видим Явления Облачность нижн/средн/верх Атм. давл. Влжн Точка росы ВНГО R Сост. почвы Tg s
Напр Скр Прв ур.ст ур.м изм
19:00 +17.5° Ю-В 2 - более 50 км - облачно с прояснениями 745 759 0 78% +13.6° 1 км 0 - - -
16:00 - +18.6° Ю 2 - - - - 745 759 0 73% +13.7° - - - - -
13:00 +19° Ю 2 - более 50 км - облачно 745 759 -0.3 72% +13.9° 1 км - - - -
10:00 - +17.8° Ю-В 1 - - - - 745 759 0 80% +14.3° - - - - -
07:00 +15.2° В 1 - более 50 км - облачно 745 760 +0.2 92% +13.9° 1 км 0 Влажная (без луж) +16° -
04:00 - +14.9° штиль 0 - - - - 745 759 +0.4 92% +13.6° - - - - -
01:00 +15.4° В 1 - 20 км - облачно 744 759 +0.1 87% +13.3° 600 м - - - -
Понедельник, 16 Июля
Время местн. Темп Ветер Видим Явления Облачность нижн/средн/верх Атм. давл. Влжн Точка росы ВНГО R Сост. почвы Tg s
Напр Скр Прв ур.ст ур.м изм
22:00 - +16° В,С-В 1 - - - - 744 759 +1.5 86% +13.6° - - - - -
19:00 +17° Ю 3 10 более 50 км - облачно 744 758 +1.5 82% +13.9° 1 км 0 - - -
16:00 - +19.7° Ю 5 - - - - 742 757 +0.2 74% +14.9° - - - - -
13:00 +23.6° Ю 3 - более 50 км - переменная облачность 742 756 -0.5 67% +17.1° 1.5 км - - - -
10:00 - +22.4° Ю,Ю-В 1 - - - - 743 757 +0.2 69% +16.4° - - - - -
07:00 +16.7° С-В 1 - 20 км - облачно 742 757 +0.6 97% +16.2° 300 м 3 Сырая (есть малые или большие лужи) +16° -
04:00 - +16.6° штиль 0 - - - - 742 756 +0.1 97% +16.1° - - - - -
01:00 +17° штиль 0 - 10 км слабый ливневый дождь облачно 742 756 +1 97% +16.5° 300 м - - - -
Воскресенье, 15 Июля
Время местн. Темп Ветер Видим Явления Облачность нижн/средн/верх Атм. давл. Влжн Точка росы ВНГО R Сост. почвы Tg s
Напр Скр Прв ур.ст ур.м изм
22:00 - +17.5° штиль 0 - - - - 741 755 +1.3 96% +16.9° - - - - -
19:00 +19.2° З 1 - 10 км умеренный или сильный ливневый дождь облачно 739 754 +1.1 94% +18.2° 600 м 15 - - -
16:00 - +20° штиль 0 - - - - 738 753 -0.8 93% +18.8° - - - - -
13:00 +17.8° штиль 0 - 10 км умеренный или сильный ливневый дождь облачно 739 754 -0.2 95% +17° 1 км - - - -
10:00 - +16.3° штиль 0 - - - - 739 754 -0.8 97% +15.8° - - - - -
07:00 +15.2° штиль 0 - 10 км слабый ливневый дождь облачно 740 755 -0.8 97% +14.7° 1 км 10 Сырая (есть малые или большие лужи) - -
04:00 - +15.2° штиль 0 - - - - 741 756 -0.8 97% +14.7° - - - - -
01:00 +15.9° В 1 - 20 км гроза {ливневые осадки} облачно 742 756 -0.8 96% +15.3° 1 км - - - -
Суббота, 14 Июля
Время местн. Темп Ветер Видим Явления Облачность нижн/средн/верх Атм. давл. Влжн Точка росы ВНГО R Сост. почвы Tg s
Напр Скр Прв ур.ст ур.м изм
22:00 - +17.7° Ю-В 2 - - - - 742 757 +0.5 92% +16.3° - - - - -
19:00 +20.2° Ю 4 - 50 км - облачно 741 756 +0.5 76% +15.9° 1.5 км 0 - - -
16:00 - +23° Ю 2 11 - - - 741 755 -0.7 65% +16.1° - - - - -